createdAt,value
2023-01-07T00:02:55.625Z,102061.31
2023-01-07T00:07:53.475Z,102064.75
2023-01-07T00:12:52.776Z,102069.91
2023-01-07T00:17:50.583Z,102072.50
2023-01-07T00:22:48.402Z,102072.50
2023-01-07T00:27:46.302Z,102086.31
2023-01-07T00:32:59.951Z,102092.34
2023-01-07T00:37:57.875Z,102082.91
2023-01-07T00:42:55.770Z,102083.81
2023-01-07T00:47:55.008Z,102097.56
2023-01-07T00:52:52.832Z,102089.00
2023-01-07T00:57:50.778Z,102086.38
2023-01-07T01:02:49.565Z,102068.31
2023-01-07T01:07:49.040Z,102068.34
2023-01-07T01:12:49.364Z,102071.75
2023-01-07T01:17:47.305Z,102070.03
2023-01-07T01:22:45.812Z,102066.56
2023-01-07T01:27:45.219Z,102075.94
2023-01-07T01:32:43.103Z,102077.63
2023-01-07T01:37:41.328Z,102069.03
2023-01-07T01:42:39.261Z,102073.97
2023-01-07T01:47:42.201Z,102059.47
2023-01-07T01:52:44.011Z,102057.72
2023-01-07T01:57:42.612Z,102062.88
2023-01-07T02:02:47.420Z,102056.03
2023-01-07T02:07:45.999Z,102068.81
2023-01-07T02:13:05.035Z,102056.84
2023-01-07T02:18:12.867Z,102067.13
2023-01-07T02:23:28.032Z,102062.84
2023-01-07T02:28:43.848Z,102065.44
2023-01-07T02:33:47.815Z,102066.31
2023-01-07T02:38:55.325Z,102074.91
2023-01-07T02:43:56.515Z,102067.16
2023-01-07T02:48:59.134Z,102068.00
2023-01-07T02:53:57.403Z,102064.53
2023-01-07T02:59:10.206Z,102083.38
2023-01-07T03:04:18.197Z,102082.50
2023-01-07T03:09:18.880Z,102078.16
2023-01-07T03:14:20.328Z,102076.44
2023-01-07T03:19:23.749Z,102076.38
2023-01-07T03:24:22.369Z,102090.00
2023-01-07T03:29:21.162Z,102096.81
2023-01-07T03:34:22.033Z,102090.78
2023-01-07T03:39:25.553Z,102079.56
2023-01-07T03:44:23.632Z,102085.50
2023-01-07T03:49:21.607Z,102096.63
2023-01-07T03:54:23.453Z,102089.66
2023-01-07T03:59:22.932Z,102093.91
2023-01-07T04:04:21.938Z,102100.69
2023-01-07T04:09:22.024Z,102092.91
2023-01-07T04:14:20.514Z,102078.19
2023-01-07T04:19:19.812Z,102086.53
2023-01-07T04:24:17.747Z,102085.56
2023-01-07T04:29:15.998Z,102088.91
2023-01-07T04:34:14.012Z,102084.56
2023-01-07T04:39:15.523Z,102081.84
2023-01-07T04:44:15.434Z,102085.25
2023-01-07T04:49:13.385Z,102081.81
2023-01-07T04:54:11.810Z,102086.13
2023-01-07T04:59:11.214Z,102104.19
2023-01-07T05:04:09.167Z,102105.91
2023-01-07T05:09:07.873Z,102105.88
2023-01-07T05:14:05.811Z,102116.13
2023-01-07T05:19:06.211Z,102117.81
2023-01-07T05:24:08.873Z,102125.53
2023-01-07T05:29:07.682Z,102116.94
2023-01-07T05:34:07.123Z,102121.09
2023-01-07T05:39:05.585Z,102121.91
2023-01-07T05:44:04.472Z,102127.03
2023-01-07T05:49:02.300Z,102132.97
2023-01-07T05:54:01.574Z,102138.94
2023-01-07T05:58:59.439Z,102139.81
2023-01-07T06:03:57.857Z,102138.94
2023-01-07T06:08:55.677Z,102138.38
2023-01-07T06:13:54.896Z,102141.91
2023-01-07T06:18:52.686Z,102147.44
2023-01-07T06:23:50.525Z,102144.50
2023-01-07T06:28:48.450Z,102136.03
2023-01-07T06:33:47.632Z,102132.97
2023-01-07T06:38:45.449Z,102120.47
2023-01-07T06:43:43.432Z,102120.72
2023-01-07T06:48:41.411Z,102129.41
2023-01-07T06:53:40.649Z,102133.53
2023-01-07T06:58:38.498Z,102126.84
2023-01-07T07:03:36.402Z,102127.63
2023-01-07T07:08:34.336Z,102128.28
2023-01-07T07:13:33.705Z,102129.91
2023-01-07T07:18:31.734Z,102128.38
2023-01-07T07:23:29.565Z,102111.19
2023-01-07T07:28:27.354Z,102121.59
2023-01-07T07:33:26.544Z,102118.94
2023-01-07T07:38:28.103Z,102119.41
2023-01-07T07:43:26.095Z,102119.53
2023-01-07T07:48:24.075Z,102123.72
2023-01-07T07:53:23.325Z,102120.53
2023-01-07T07:58:21.606Z,102127.16
2023-01-07T08:03:19.619Z,102120.88
2023-01-07T08:08:17.554Z,102133.63
2023-01-07T08:13:19.634Z,102134.19
2023-01-07T08:18:19.232Z,102135.34
2023-01-07T08:23:18.678Z,102142.66
2023-01-07T08:28:18.141Z,102134.84
2023-01-07T08:33:16.014Z,102141.50
2023-01-07T08:38:13.895Z,102140.63
2023-01-07T08:43:12.364Z,102150.78
2023-01-07T08:48:11.571Z,102153.19
2023-01-07T08:53:09.534Z,102147.56
2023-01-07T08:58:07.729Z,102162.50
2023-01-07T09:03:05.785Z,102154.00
2023-01-07T09:08:05.294Z,102170.06
2023-01-07T09:13:03.119Z,102150.78
2023-01-07T09:18:03.618Z,102142.91
2023-01-07T09:23:01.616Z,102137.19
2023-01-07T09:28:00.839Z,102143.16
2023-01-07T09:33:00.482Z,102143.66
2023-01-07T09:37:58.323Z,102133.38
2023-01-07T09:42:59.905Z,102112.28
2023-01-07T09:48:04.234Z,102105.84
2023-01-07T09:53:16.206Z,102109.66
2023-01-07T09:58:14.568Z,102100.31
2023-01-07T10:03:18.817Z,102086.94
2023-01-07T10:08:31.305Z,102076.84
2023-01-07T10:13:43.905Z,102068.63
2023-01-07T10:18:48.073Z,102063.34
2023-01-07T10:23:48.322Z,102056.69
2023-01-07T10:28:50.054Z,102061.28
2023-01-07T10:33:49.910Z,102053.69
2023-01-07T10:38:51.145Z,102038.47
2023-01-07T10:43:59.977Z,102036.94
2023-01-07T10:49:07.872Z,102022.94
2023-01-07T10:54:13.934Z,102024.56
2023-01-07T10:59:15.483Z,102022.03
2023-01-07T11:04:17.712Z,102018.78
2023-01-07T11:09:18.021Z,102010.63
2023-01-07T11:14:19.649Z,102001.88
2023-01-07T11:19:20.320Z,101985.72
2023-01-07T11:24:34.649Z,101973.06
2023-01-07T11:29:36.573Z,101964.44
2023-01-07T11:34:37.184Z,101974.63
2023-01-07T11:39:35.711Z,101966.25
2023-01-07T11:44:33.559Z,101970.94
2023-01-07T11:49:32.080Z,101970.41
2023-01-07T11:54:34.428Z,101960.56
2023-01-07T11:59:33.300Z,101957.78
2023-01-07T12:04:37.627Z,101958.50
2023-01-07T12:09:42.880Z,101954.28
2023-01-07T12:14:41.613Z,101941.94
2023-01-07T12:19:54.586Z,101953.06
2023-01-07T12:25:13.097Z,101944.00
2023-01-07T12:30:28.336Z,101938.56
2023-01-07T12:35:29.436Z,101926.03
2023-01-07T12:40:32.061Z,101931.03
2023-01-07T12:45:35.260Z,101927.06
2023-01-07T12:50:38.742Z,101921.94
2023-01-07T12:55:38.370Z,101933.41
2023-01-07T13:00:40.720Z,101919.94
2023-01-07T13:05:40.235Z,101930.25
2023-01-07T13:10:49.792Z,101900.09
2023-01-07T13:15:49.336Z,101918.59
2023-01-07T13:21:01.196Z,101912.69
2023-01-07T13:26:09.578Z,101915.38
2023-01-07T13:31:17.919Z,101921.22
2023-01-07T13:36:24.480Z,101910.78
2023-01-07T13:41:44.306Z,101905.75
2023-01-07T13:46:45.273Z,101911.19
2023-01-07T13:51:43.362Z,101916.25
2023-01-07T13:56:41.634Z,101910.38
2023-01-07T14:01:59.799Z,101920.22
2023-01-07T14:07:01.492Z,101913.06
2023-01-07T14:12:23.147Z,101918.81
2023-01-07T14:17:25.448Z,101916.63
2023-01-07T14:22:30.608Z,101921.34
2023-01-07T14:27:46.490Z,101925.19
2023-01-07T14:32:45.227Z,101920.13
2023-01-07T14:37:47.111Z,101914.28
2023-01-07T14:42:47.979Z,101912.09
2023-01-07T14:47:55.232Z,101913.13
2023-01-07T14:53:17.871Z,101911.00
2023-01-07T14:58:23.639Z,101917.47
2023-01-07T15:03:40.942Z,101911.88
2023-01-07T15:09:08.303Z,101916.28
2023-01-07T15:14:28.660Z,101912.31
2023-01-07T15:19:27.659Z,101917.84
2023-01-07T15:24:30.688Z,101925.91
2023-01-07T15:29:31.415Z,101930.53
2023-01-07T15:34:31.590Z,101930.94
2023-01-07T15:39:33.408Z,101926.75
2023-01-07T15:44:37.814Z,101928.91
2023-01-07T15:49:37.521Z,101923.09
2023-01-07T15:54:37.189Z,101933.59
2023-01-07T15:59:36.662Z,101942.53
2023-01-07T16:04:37.302Z,101947.00
2023-01-07T16:09:36.629Z,101945.56
2023-01-07T16:14:36.507Z,101943.13
2023-01-07T16:19:34.703Z,101946.63
2023-01-07T16:24:32.619Z,101946.09
2023-01-07T16:29:33.141Z,101945.44
2023-01-07T16:34:51.750Z,101945.59
2023-01-07T16:39:53.664Z,101945.00
2023-01-07T16:45:00.259Z,101946.00
2023-01-07T16:49:59.588Z,101961.94
2023-01-07T16:54:57.666Z,101960.41
2023-01-07T16:59:57.282Z,101963.06
2023-01-07T17:04:57.813Z,101964.75
2023-01-07T17:09:58.836Z,101972.63
2023-01-07T17:14:56.761Z,101984.72
2023-01-07T17:20:01.115Z,101979.59
2023-01-07T17:25:07.055Z,101991.13
2023-01-07T17:30:05.614Z,101985.97
2023-01-07T17:35:05.615Z,101992.03
2023-01-07T17:40:03.465Z,101994.66
2023-01-07T17:45:01.376Z,101993.03
2023-01-07T17:49:59.253Z,101986.94
2023-01-07T17:54:58.528Z,101991.28
2023-01-07T17:59:56.391Z,101990.50
2023-01-07T18:04:54.282Z,101995.78
2023-01-07T18:09:52.139Z,102001.00
2023-01-07T18:14:51.433Z,102001.84
2023-01-07T18:19:50.670Z,102006.19
2023-01-07T18:24:48.737Z,102002.03
2023-01-07T18:29:46.564Z,102004.66
2023-01-07T18:34:45.813Z,102005.56
2023-01-07T18:39:43.743Z,102007.31
2023-01-07T18:44:41.890Z,102005.56
2023-01-07T18:49:40.184Z,102008.16
2023-01-07T18:54:41.325Z,102008.16
2023-01-07T18:59:39.338Z,102009.00
2023-01-07T19:04:39.837Z,102003.84
2023-01-07T19:09:39.178Z,102004.66
2023-01-07T19:14:37.040Z,102001.19
2023-01-07T19:19:47.403Z,101995.25
2023-01-07T19:24:50.469Z,101995.22
2023-01-07T19:29:48.469Z,101994.38
2023-01-07T19:34:46.325Z,102002.94
2023-01-07T19:39:46.172Z,101996.03
2023-01-07T19:44:58.679Z,101995.16
2023-01-07T19:49:56.592Z,101990.84
2023-01-07T19:54:54.464Z,101999.44
2023-01-07T19:59:53.737Z,101970.22
2023-01-07T20:04:51.828Z,101992.53
2023-01-07T20:09:49.865Z,101994.28
2023-01-07T20:14:47.832Z,101988.28
2023-01-07T20:19:47.123Z,101982.28
2023-01-07T20:24:46.947Z,101981.38
2023-01-07T20:29:45.580Z,101972.78
2023-01-07T20:34:43.613Z,101971.06
2023-01-07T20:39:43.084Z,101971.94
2023-01-07T20:44:41.627Z,101973.69
2023-01-07T20:49:39.479Z,101970.25
2023-01-07T20:54:37.314Z,101973.69
2023-01-07T20:59:36.655Z,101971.13
2023-01-07T21:04:34.547Z,101984.00
2023-01-07T21:09:32.531Z,101983.13
2023-01-07T21:14:30.451Z,101984.81
2023-01-07T21:19:30.170Z,101981.38
2023-01-07T21:24:27.999Z,101983.97
2023-01-07T21:29:25.816Z,101978.81
2023-01-07T21:34:25.812Z,101983.00
2023-01-07T21:39:25.131Z,101976.97
2023-01-07T21:44:22.947Z,101980.41
2023-01-07T21:49:20.774Z,101970.06
2023-01-07T21:54:18.722Z,101966.66
2023-01-07T21:59:17.965Z,101961.47
2023-01-07T22:04:15.842Z,101962.34
2023-01-07T22:09:14.680Z,101959.78
2023-01-07T22:14:14.625Z,101954.63
2023-01-07T22:19:13.900Z,101959.75
2023-01-07T22:24:11.807Z,101956.31
2023-01-07T22:29:10.331Z,101952.84
2023-01-07T22:34:08.723Z,101949.38
2023-01-07T22:39:11.854Z,101939.03
2023-01-07T22:44:11.510Z,101934.69
2023-01-07T22:49:09.400Z,101937.25
2023-01-07T22:54:08.885Z,101935.56
2023-01-07T22:59:06.720Z,101926.97
2023-01-07T23:04:05.167Z,101915.78
2023-01-07T23:09:03.055Z,101919.16
2023-01-07T23:14:02.665Z,101921.72
2023-01-07T23:19:00.518Z,101920.75
2023-01-07T23:23:58.387Z,101915.63
2023-01-07T23:28:56.245Z,101921.59
2023-01-07T23:33:55.476Z,101918.81
2023-01-07T23:38:53.562Z,101917.13
2023-01-07T23:43:51.408Z,101913.66
2023-01-07T23:48:49.253Z,101906.81
2023-01-07T23:53:49.096Z,101909.34
2023-01-07T23:58:47.275Z,101911.91
